sensor_id;sensor_type;location;lat;lon;timestamp;P1;durP1;ratioP1;P2;durP2;ratioP2
48550;SDS011;34397;51.176;6.738;2023-03-20T00:02:16;11.93;;;7.57;;
48550;SDS011;34397;51.176;6.738;2023-03-20T00:04:50;10.20;;;7.32;;
48550;SDS011;34397;51.176;6.738;2023-03-20T00:07:22;20.35;;;9.60;;
48550;SDS011;34397;51.176;6.738;2023-03-20T00:09:55;16.15;;;9.13;;
48550;SDS011;34397;51.176;6.738;2023-03-20T00:12:27;11.90;;;8.23;;
48550;SDS011;34397;51.176;6.738;2023-03-20T00:14:59;10.30;;;7.35;;
48550;SDS011;34397;51.176;6.738;2023-03-20T00:17:35;12.77;;;7.50;;
48550;SDS011;34397;51.176;6.738;2023-03-20T00:20:09;10.95;;;7.55;;
48550;SDS011;34397;51.176;6.738;2023-03-20T00:22:45;11.82;;;7.85;;
48550;SDS011;34397;51.176;6.738;2023-03-20T00:25:18;11.80;;;7.68;;
48550;SDS011;34397;51.176;6.738;2023-03-20T00:27:52;12.13;;;6.82;;
48550;SDS011;34397;51.176;6.738;2023-03-20T00:30:25;10.73;;;6.95;;
48550;SDS011;34397;51.176;6.738;2023-03-20T00:33:00;10.02;;;6.95;;
48550;SDS011;34397;51.176;6.738;2023-03-20T00:35:32;11.07;;;7.88;;
48550;SDS011;34397;51.176;6.738;2023-03-20T00:38:04;11.57;;;7.35;;
48550;SDS011;34397;51.176;6.738;2023-03-20T00:40:36;10.40;;;7.30;;
48550;SDS011;34397;51.176;6.738;2023-03-20T00:43:08;10.52;;;7.03;;
48550;SDS011;34397;51.176;6.738;2023-03-20T00:45:44;10.30;;;6.93;;
48550;SDS011;34397;51.176;6.738;2023-03-20T00:48:18;9.60;;;6.63;;
48550;SDS011;34397;51.176;6.738;2023-03-20T00:50:50;13.20;;;7.78;;
48550;SDS011;34397;51.176;6.738;2023-03-20T00:53:22;8.65;;;6.57;;
48550;SDS011;34397;51.176;6.738;2023-03-20T00:55:54;9.40;;;6.38;;
48550;SDS011;34397;51.176;6.738;2023-03-20T00:58:26;10.27;;;6.85;;
48550;SDS011;34397;51.176;6.738;2023-03-20T01:00:57;9.60;;;6.72;;
48550;SDS011;34397;51.176;6.738;2023-03-20T01:03:31;11.65;;;7.15;;
48550;SDS011;34397;51.176;6.738;2023-03-20T01:06:04;9.95;;;6.90;;
48550;SDS011;34397;51.176;6.738;2023-03-20T01:08:36;11.65;;;7.13;;
48550;SDS011;34397;51.176;6.738;2023-03-20T01:11:08;11.80;;;7.03;;
48550;SDS011;34397;51.176;6.738;2023-03-20T01:13:42;10.70;;;7.18;;
48550;SDS011;34397;51.176;6.738;2023-03-20T01:16:17;11.15;;;7.63;;
48550;SDS011;34397;51.176;6.738;2023-03-20T01:18:53;12.00;;;7.85;;
48550;SDS011;34397;51.176;6.738;2023-03-20T01:21:25;11.88;;;7.93;;
48550;SDS011;34397;51.176;6.738;2023-03-20T01:23:57;11.07;;;7.82;;
48550;SDS011;34397;51.176;6.738;2023-03-20T01:26:33;11.40;;;7.53;;
48550;SDS011;34397;51.176;6.738;2023-03-20T01:29:11;10.48;;;7.80;;
48550;SDS011;34397;51.176;6.738;2023-03-20T01:31:48;11.07;;;8.23;;
48550;SDS011;34397;51.176;6.738;2023-03-20T01:34:23;9.60;;;7.00;;
48550;SDS011;34397;51.176;6.738;2023-03-20T01:36:56;11.75;;;7.72;;
48550;SDS011;34397;51.176;6.738;2023-03-20T01:39:30;11.82;;;7.18;;
48550;SDS011;34397;51.176;6.738;2023-03-20T01:42:06;10.90;;;7.63;;
48550;SDS011;34397;51.176;6.738;2023-03-20T01:44:38;11.13;;;7.57;;
48550;SDS011;34397;51.176;6.738;2023-03-20T01:47:11;11.68;;;7.57;;
48550;SDS011;34397;51.176;6.738;2023-03-20T01:52:52;10.63;;;7.13;;
48550;SDS011;34397;51.176;6.738;2023-03-20T01:55:30;10.75;;;7.10;;
48550;SDS011;34397;51.176;6.738;2023-03-20T01:58:04;8.85;;;6.63;;
48550;SDS011;34397;51.176;6.738;2023-03-20T02:00:41;11.05;;;7.10;;
48550;SDS011;34397;51.176;6.738;2023-03-20T02:03:13;10.10;;;6.90;;
48550;SDS011;34397;51.176;6.738;2023-03-20T02:05:48;9.88;;;6.50;;
48550;SDS011;34397;51.176;6.738;2023-03-20T02:08:22;11.82;;;7.57;;
48550;SDS011;34397;51.176;6.738;2023-03-20T02:10:58;8.70;;;6.90;;
48550;SDS011;34397;51.176;6.738;2023-03-20T02:13:31;9.52;;;6.97;;
48550;SDS011;34397;51.176;6.738;2023-03-20T02:16:05;9.48;;;7.20;;
48550;SDS011;34397;51.176;6.738;2023-03-20T02:18:42;9.38;;;6.43;;
48550;SDS011;34397;51.176;6.738;2023-03-20T02:21:25;10.85;;;6.80;;
48550;SDS011;34397;51.176;6.738;2023-03-20T02:27:49;10.25;;;6.97;;
48550;SDS011;34397;51.176;6.738;2023-03-20T02:30:49;10.32;;;7.00;;
48550;SDS011;34397;51.176;6.738;2023-03-20T02:33:52;11.02;;;6.78;;
48550;SDS011;34397;51.176;6.738;2023-03-20T02:40:15;10.90;;;6.70;;
48550;SDS011;34397;51.176;6.738;2023-03-20T02:42:57;10.98;;;6.82;;
48550;SDS011;34397;51.176;6.738;2023-03-20T02:45:35;10.10;;;7.07;;
48550;SDS011;34397;51.176;6.738;2023-03-20T02:48:20;11.68;;;7.28;;
48550;SDS011;34397;51.176;6.738;2023-03-20T02:51:05;10.98;;;7.20;;
48550;SDS011;34397;51.176;6.738;2023-03-20T02:53:46;12.07;;;8.15;;
48550;SDS011;34397;51.176;6.738;2023-03-20T02:56:24;11.75;;;7.43;;
48550;SDS011;34397;51.176;6.738;2023-03-20T02:59:04;10.50;;;6.90;;
48550;SDS011;34397;51.176;6.738;2023-03-20T03:01:45;10.23;;;7.03;;
48550;SDS011;34397;51.176;6.738;2023-03-20T03:04:23;11.10;;;7.43;;
48550;SDS011;34397;51.176;6.738;2023-03-20T03:06:59;11.20;;;7.70;;
48550;SDS011;34397;51.176;6.738;2023-03-20T03:09:35;13.25;;;7.43;;
48550;SDS011;34397;51.176;6.738;2023-03-20T03:12:14;11.65;;;7.63;;
48550;SDS011;34397;51.176;6.738;2023-03-20T03:14:50;11.32;;;7.72;;
48550;SDS011;34397;51.176;6.738;2023-03-20T03:17:25;12.13;;;8.20;;
48550;SDS011;34397;51.176;6.738;2023-03-20T03:20:03;12.70;;;8.50;;
48550;SDS011;34397;51.176;6.738;2023-03-20T03:25:18;11.30;;;7.32;;
48550;SDS011;34397;51.176;6.738;2023-03-20T03:27:59;11.38;;;7.97;;
48550;SDS011;34397;51.176;6.738;2023-03-20T03:30:36;12.05;;;7.70;;
48550;SDS011;34397;51.176;6.738;2023-03-20T03:33:12;12.48;;;8.18;;
48550;SDS011;34397;51.176;6.738;2023-03-20T03:35:49;13.30;;;8.40;;
48550;SDS011;34397;51.176;6.738;2023-03-20T03:38:30;13.05;;;8.60;;
48550;SDS011;34397;51.176;6.738;2023-03-20T03:41:15;13.02;;;8.23;;
48550;SDS011;34397;51.176;6.738;2023-03-20T03:43:55;12.57;;;7.80;;
48550;SDS011;34397;51.176;6.738;2023-03-20T03:46:38;11.85;;;8.25;;
48550;SDS011;34397;51.176;6.738;2023-03-20T03:49:17;13.05;;;8.18;;
48550;SDS011;34397;51.176;6.738;2023-03-20T03:51:53;13.00;;;8.02;;
48550;SDS011;34397;51.176;6.738;2023-03-20T03:54:30;14.52;;;8.85;;
48550;SDS011;34397;51.176;6.738;2023-03-20T03:57:10;12.95;;;9.07;;
48550;SDS011;34397;51.176;6.738;2023-03-20T03:59:46;14.80;;;9.00;;
48550;SDS011;34397;51.176;6.738;2023-03-20T04:02:21;15.07;;;9.07;;
48550;SDS011;34397;51.176;6.738;2023-03-20T04:04:54;15.68;;;8.82;;
48550;SDS011;34397;51.176;6.738;2023-03-20T04:07:26;12.00;;;8.60;;
48550;SDS011;34397;51.176;6.738;2023-03-20T04:09:59;13.93;;;9.02;;
48550;SDS011;34397;51.176;6.738;2023-03-20T04:12:33;14.48;;;9.43;;
48550;SDS011;34397;51.176;6.738;2023-03-20T04:15:07;12.63;;;8.23;;
48550;SDS011;34397;51.176;6.738;2023-03-20T04:17:40;13.02;;;8.50;;
48550;SDS011;34397;51.176;6.738;2023-03-20T04:20:12;12.30;;;8.40;;
48550;SDS011;34397;51.176;6.738;2023-03-20T04:22:45;15.25;;;8.32;;
48550;SDS011;34397;51.176;6.738;2023-03-20T04:25:18;11.98;;;8.00;;
48550;SDS011;34397;51.176;6.738;2023-03-20T04:27:54;14.57;;;8.57;;
48550;SDS011;34397;51.176;6.738;2023-03-20T04:30:25;13.07;;;7.82;;
48550;SDS011;34397;51.176;6.738;2023-03-20T04:32:57;14.13;;;9.00;;
48550;SDS011;34397;51.176;6.738;2023-03-20T04:35:29;14.48;;;9.10;;
48550;SDS011;34397;51.176;6.738;2023-03-20T04:38:01;13.65;;;7.97;;
48550;SDS011;34397;51.176;6.738;2023-03-20T04:40:33;13.02;;;8.20;;
48550;SDS011;34397;51.176;6.738;2023-03-20T04:43:06;12.98;;;8.02;;
48550;SDS011;34397;51.176;6.738;2023-03-20T04:45:38;13.75;;;8.35;;
48550;SDS011;34397;51.176;6.738;2023-03-20T04:48:10;11.73;;;7.63;;
48550;SDS011;34397;51.176;6.738;2023-03-20T04:50:42;13.90;;;7.68;;
48550;SDS011;34397;51.176;6.738;2023-03-20T04:53:17;10.10;;;7.20;;
48550;SDS011;34397;51.176;6.738;2023-03-20T04:55:49;12.07;;;7.22;;
48550;SDS011;34397;51.176;6.738;2023-03-20T04:58:22;11.98;;;7.65;;
48550;SDS011;34397;51.176;6.738;2023-03-20T05:00:54;10.80;;;7.10;;
48550;SDS011;34397;51.176;6.738;2023-03-20T05:03:25;11.30;;;7.28;;
48550;SDS011;34397;51.176;6.738;2023-03-20T05:05:58;11.55;;;7.40;;
48550;SDS011;34397;51.176;6.738;2023-03-20T05:08:30;13.25;;;7.60;;
48550;SDS011;34397;51.176;6.738;2023-03-20T05:11:02;12.60;;;7.53;;
48550;SDS011;34397;51.176;6.738;2023-03-20T05:13:35;9.82;;;6.68;;
48550;SDS011;34397;51.176;6.738;2023-03-20T05:16:07;12.93;;;7.65;;
48550;SDS011;34397;51.176;6.738;2023-03-20T05:18:39;12.90;;;8.13;;
48550;SDS011;34397;51.176;6.738;2023-03-20T05:21:11;14.88;;;8.57;;
48550;SDS011;34397;51.176;6.738;2023-03-20T05:23:42;12.00;;;7.88;;
48550;SDS011;34397;51.176;6.738;2023-03-20T05:26:14;13.30;;;8.95;;
48550;SDS011;34397;51.176;6.738;2023-03-20T05:28:47;14.40;;;8.35;;
48550;SDS011;34397;51.176;6.738;2023-03-20T05:31:19;16.65;;;8.65;;
48550;SDS011;34397;51.176;6.738;2023-03-20T05:33:51;16.35;;;8.90;;
48550;SDS011;34397;51.176;6.738;2023-03-20T05:36:23;15.40;;;9.50;;
48550;SDS011;34397;51.176;6.738;2023-03-20T05:38:56;13.73;;;8.93;;
48550;SDS011;34397;51.176;6.738;2023-03-20T05:41:27;17.85;;;10.27;;
48550;SDS011;34397;51.176;6.738;2023-03-20T05:44:01;15.60;;;9.85;;
48550;SDS011;34397;51.176;6.738;2023-03-20T05:46:33;16.85;;;9.38;;
48550;SDS011;34397;51.176;6.738;2023-03-20T05:49:05;16.88;;;10.23;;
48550;SDS011;34397;51.176;6.738;2023-03-20T05:51:36;15.52;;;9.40;;
48550;SDS011;34397;51.176;6.738;2023-03-20T05:54:08;17.83;;;9.10;;
48550;SDS011;34397;51.176;6.738;2023-03-20T05:56:40;16.10;;;9.05;;
48550;SDS011;34397;51.176;6.738;2023-03-20T05:59:14;16.63;;;9.60;;
48550;SDS011;34397;51.176;6.738;2023-03-20T06:01:45;14.68;;;9.10;;
48550;SDS011;34397;51.176;6.738;2023-03-20T06:04:17;17.98;;;9.57;;
48550;SDS011;34397;51.176;6.738;2023-03-20T06:06:49;16.17;;;9.63;;
48550;SDS011;34397;51.176;6.738;2023-03-20T06:09:21;16.40;;;9.27;;
48550;SDS011;34397;51.176;6.738;2023-03-20T06:11:53;17.75;;;10.02;;
48550;SDS011;34397;51.176;6.738;2023-03-20T06:14:26;16.25;;;9.43;;
48550;SDS011;34397;51.176;6.738;2023-03-20T06:16:58;16.55;;;9.10;;
48550;SDS011;34397;51.176;6.738;2023-03-20T06:19:30;14.45;;;9.55;;
48550;SDS011;34397;51.176;6.738;2023-03-20T06:22:02;18.33;;;9.63;;
48550;SDS011;34397;51.176;6.738;2023-03-20T06:24:34;15.27;;;9.38;;
48550;SDS011;34397;51.176;6.738;2023-03-20T06:27:07;18.30;;;8.57;;
48550;SDS011;34397;51.176;6.738;2023-03-20T06:29:40;14.73;;;9.25;;
48550;SDS011;34397;51.176;6.738;2023-03-20T06:32:12;16.88;;;9.40;;
48550;SDS011;34397;51.176;6.738;2023-03-20T06:34:46;16.50;;;8.45;;
48550;SDS011;34397;51.176;6.738;2023-03-20T06:37:18;13.00;;;7.45;;
48550;SDS011;34397;51.176;6.738;2023-03-20T06:39:50;12.90;;;7.55;;
48550;SDS011;34397;51.176;6.738;2023-03-20T06:42:22;17.17;;;7.80;;
48550;SDS011;34397;51.176;6.738;2023-03-20T06:44:56;13.18;;;7.80;;
48550;SDS011;34397;51.176;6.738;2023-03-20T06:47:27;11.05;;;6.85;;
48550;SDS011;34397;51.176;6.738;2023-03-20T06:49:59;10.80;;;6.78;;
48550;SDS011;34397;51.176;6.738;2023-03-20T06:52:31;11.48;;;7.35;;
48550;SDS011;34397;51.176;6.738;2023-03-20T06:55:05;13.80;;;7.05;;
48550;SDS011;34397;51.176;6.738;2023-03-20T06:57:37;10.27;;;6.63;;
48550;SDS011;34397;51.176;6.738;2023-03-20T07:00:11;12.68;;;6.88;;
48550;SDS011;34397;51.176;6.738;2023-03-20T07:02:44;12.32;;;6.07;;
48550;SDS011;34397;51.176;6.738;2023-03-20T07:05:17;10.18;;;6.15;;
48550;SDS011;34397;51.176;6.738;2023-03-20T07:07:49;9.63;;;6.00;;
48550;SDS011;34397;51.176;6.738;2023-03-20T07:10:21;11.13;;;6.10;;
48550;SDS011;34397;51.176;6.738;2023-03-20T07:12:53;10.88;;;6.10;;
48550;SDS011;34397;51.176;6.738;2023-03-20T07:15:27;11.15;;;5.78;;
48550;SDS011;34397;51.176;6.738;2023-03-20T07:17:59;9.23;;;4.90;;
48550;SDS011;34397;51.176;6.738;2023-03-20T07:20:31;8.50;;;4.70;;
48550;SDS011;34397;51.176;6.738;2023-03-20T07:23:03;11.32;;;5.53;;
48550;SDS011;34397;51.176;6.738;2023-03-20T07:25:35;10.85;;;5.10;;
48550;SDS011;34397;51.176;6.738;2023-03-20T07:28:07;7.28;;;5.20;;
48550;SDS011;34397;51.176;6.738;2023-03-20T07:30:41;7.93;;;4.88;;
48550;SDS011;34397;51.176;6.738;2023-03-20T07:33:13;7.85;;;4.13;;
48550;SDS011;34397;51.176;6.738;2023-03-20T07:35:45;10.38;;;5.10;;
48550;SDS011;34397;51.176;6.738;2023-03-20T07:38:17;9.20;;;5.03;;
48550;SDS011;34397;51.176;6.738;2023-03-20T07:40:49;10.57;;;4.60;;
48550;SDS011;34397;51.176;6.738;2023-03-20T07:43:23;10.23;;;5.53;;
48550;SDS011;34397;51.176;6.738;2023-03-20T07:45:56;11.32;;;6.18;;
48550;SDS011;34397;51.176;6.738;2023-03-20T07:48:28;8.75;;;5.05;;
48550;SDS011;34397;51.176;6.738;2023-03-20T07:51:00;11.82;;;5.38;;
48550;SDS011;34397;51.176;6.738;2023-03-20T07:53:32;8.73;;;5.40;;
48550;SDS011;34397;51.176;6.738;2023-03-20T07:56:04;12.32;;;4.78;;
48550;SDS011;34397;51.176;6.738;2023-03-20T07:58:37;9.02;;;5.50;;
48550;SDS011;34397;51.176;6.738;2023-03-20T08:01:10;9.65;;;5.75;;
48550;SDS011;34397;51.176;6.738;2023-03-20T08:03:42;11.18;;;5.90;;
48550;SDS011;34397;51.176;6.738;2023-03-20T08:06:14;9.85;;;5.25;;
48550;SDS011;34397;51.176;6.738;2023-03-20T08:08:46;12.32;;;5.13;;
48550;SDS011;34397;51.176;6.738;2023-03-20T08:11:20;10.75;;;5.57;;
48550;SDS011;34397;51.176;6.738;2023-03-20T08:13:52;9.38;;;5.65;;
48550;SDS011;34397;51.176;6.738;2023-03-20T08:16:25;12.18;;;5.70;;
48550;SDS011;34397;51.176;6.738;2023-03-20T08:18:57;15.52;;;5.45;;
48550;SDS011;34397;51.176;6.738;2023-03-20T08:21:31;12.23;;;5.57;;
48550;SDS011;34397;51.176;6.738;2023-03-20T08:24:03;8.95;;;5.40;;
48550;SDS011;34397;51.176;6.738;2023-03-20T08:26:36;11.25;;;6.00;;
48550;SDS011;34397;51.176;6.738;2023-03-20T08:29:08;12.48;;;5.82;;
48550;SDS011;34397;51.176;6.738;2023-03-20T08:31:42;10.45;;;5.63;;
48550;SDS011;34397;51.176;6.738;2023-03-20T08:34:14;11.82;;;5.25;;
48550;SDS011;34397;51.176;6.738;2023-03-20T08:36:46;10.15;;;5.30;;
48550;SDS011;34397;51.176;6.738;2023-03-20T08:39:18;11.85;;;5.22;;
48550;SDS011;34397;51.176;6.738;2023-03-20T08:41:50;9.20;;;4.78;;
48550;SDS011;34397;51.176;6.738;2023-03-20T08:44:22;12.68;;;5.10;;
48550;SDS011;34397;51.176;6.738;2023-03-20T08:46:57;10.35;;;5.43;;
48550;SDS011;34397;51.176;6.738;2023-03-20T08:49:29;8.10;;;4.50;;
48550;SDS011;34397;51.176;6.738;2023-03-20T08:52:01;11.13;;;4.50;;
48550;SDS011;34397;51.176;6.738;2023-03-20T08:54:33;8.40;;;4.28;;
48550;SDS011;34397;51.176;6.738;2023-03-20T08:57:05;7.03;;;4.07;;
48550;SDS011;34397;51.176;6.738;2023-03-20T08:59:37;11.32;;;4.50;;
48550;SDS011;34397;51.176;6.738;2023-03-20T09:02:10;9.68;;;4.15;;
48550;SDS011;34397;51.176;6.738;2023-03-20T09:04:42;7.47;;;3.85;;
48550;SDS011;34397;51.176;6.738;2023-03-20T09:07:14;10.50;;;4.63;;
48550;SDS011;34397;51.176;6.738;2023-03-20T09:09:46;8.10;;;4.20;;
48550;SDS011;34397;51.176;6.738;2023-03-20T09:12:18;8.02;;;4.57;;
48550;SDS011;34397;51.176;6.738;2023-03-20T09:14:50;7.72;;;4.00;;
48550;SDS011;34397;51.176;6.738;2023-03-20T09:17:23;6.63;;;3.72;;
48550;SDS011;34397;51.176;6.738;2023-03-20T09:19:55;8.85;;;4.05;;
48550;SDS011;34397;51.176;6.738;2023-03-20T09:22:27;11.88;;;4.40;;
48550;SDS011;34397;51.176;6.738;2023-03-20T09:24:59;11.23;;;4.38;;
48550;SDS011;34397;51.176;6.738;2023-03-20T09:27:31;8.30;;;3.88;;
48550;SDS011;34397;51.176;6.738;2023-03-20T09:30:04;11.35;;;4.05;;
48550;SDS011;34397;51.176;6.738;2023-03-20T09:32:39;10.15;;;4.07;;
48550;SDS011;34397;51.176;6.738;2023-03-20T09:35:11;7.22;;;3.20;;
48550;SDS011;34397;51.176;6.738;2023-03-20T09:37:42;8.45;;;3.40;;
48550;SDS011;34397;51.176;6.738;2023-03-20T09:40:19;5.18;;;2.85;;
48550;SDS011;34397;51.176;6.738;2023-03-20T09:43:00;7.18;;;3.05;;
48550;SDS011;34397;51.176;6.738;2023-03-20T09:45:39;8.27;;;2.80;;
48550;SDS011;34397;51.176;6.738;2023-03-20T09:48:23;5.80;;;2.20;;
48550;SDS011;34397;51.176;6.738;2023-03-20T09:51:03;6.45;;;2.22;;
48550;SDS011;34397;51.176;6.738;2023-03-20T09:53:46;5.05;;;1.92;;
48550;SDS011;34397;51.176;6.738;2023-03-20T09:56:22;5.93;;;2.13;;
48550;SDS011;34397;51.176;6.738;2023-03-20T09:58:57;5.85;;;1.85;;
48550;SDS011;34397;51.176;6.738;2023-03-20T10:01:33;6.40;;;2.40;;
48550;SDS011;34397;51.176;6.738;2023-03-20T10:04:14;4.53;;;1.95;;
48550;SDS011;34397;51.176;6.738;2023-03-20T10:06:45;5.68;;;2.45;;
48550;SDS011;34397;51.176;6.738;2023-03-20T10:09:19;5.82;;;2.30;;
48550;SDS011;34397;51.176;6.738;2023-03-20T10:11:57;7.70;;;2.53;;
48550;SDS011;34397;51.176;6.738;2023-03-20T10:14:49;5.25;;;2.22;;
48550;SDS011;34397;51.176;6.738;2023-03-20T10:20:20;8.52;;;2.22;;
48550;SDS011;34397;51.176;6.738;2023-03-20T10:25:32;7.03;;;2.70;;
48550;SDS011;34397;51.176;6.738;2023-03-20T10:28:13;8.77;;;2.63;;
48550;SDS011;34397;51.176;6.738;2023-03-20T10:30:55;6.38;;;2.45;;
48550;SDS011;34397;51.176;6.738;2023-03-20T10:33:49;5.28;;;2.20;;
48550;SDS011;34397;51.176;6.738;2023-03-20T10:36:38;6.15;;;2.83;;
48550;SDS011;34397;51.176;6.738;2023-03-20T10:39:23;6.95;;;2.40;;
48550;SDS011;34397;51.176;6.738;2023-03-20T10:42:12;7.50;;;2.63;;
48550;SDS011;34397;51.176;6.738;2023-03-20T10:44:49;7.90;;;2.90;;
48550;SDS011;34397;51.176;6.738;2023-03-20T10:47:27;9.35;;;2.58;;
48550;SDS011;34397;51.176;6.738;2023-03-20T10:50:04;5.82;;;2.38;;
48550;SDS011;34397;51.176;6.738;2023-03-20T10:52:40;8.70;;;3.10;;
48550;SDS011;34397;51.176;6.738;2023-03-20T10:55:14;9.20;;;2.50;;
48550;SDS011;34397;51.176;6.738;2023-03-20T10:57:51;6.70;;;2.75;;
48550;SDS011;34397;51.176;6.738;2023-03-20T11:00:30;8.43;;;2.83;;
48550;SDS011;34397;51.176;6.738;2023-03-20T11:03:02;4.28;;;2.40;;
48550;SDS011;34397;51.176;6.738;2023-03-20T11:05:36;7.22;;;2.42;;
48550;SDS011;34397;51.176;6.738;2023-03-20T11:08:10;5.88;;;2.33;;
48550;SDS011;34397;51.176;6.738;2023-03-20T11:10:43;6.88;;;2.38;;
48550;SDS011;34397;51.176;6.738;2023-03-20T11:13:18;8.43;;;3.38;;
48550;SDS011;34397;51.176;6.738;2023-03-20T11:15:56;6.60;;;2.47;;
48550;SDS011;34397;51.176;6.738;2023-03-20T11:18:40;7.65;;;2.90;;
48550;SDS011;34397;51.176;6.738;2023-03-20T11:21:14;15.57;;;6.18;;
48550;SDS011;34397;51.176;6.738;2023-03-20T11:23:51;7.15;;;2.92;;
48550;SDS011;34397;51.176;6.738;2023-03-20T11:26:31;12.27;;;4.28;;
48550;SDS011;34397;51.176;6.738;2023-03-20T11:29:07;13.85;;;3.75;;
48550;SDS011;34397;51.176;6.738;2023-03-20T11:31:49;12.15;;;3.95;;
48550;SDS011;34397;51.176;6.738;2023-03-20T11:34:22;9.63;;;2.63;;
48550;SDS011;34397;51.176;6.738;2023-03-20T11:36:57;4.80;;;2.00;;
48550;SDS011;34397;51.176;6.738;2023-03-20T11:39:32;4.43;;;1.60;;
48550;SDS011;34397;51.176;6.738;2023-03-20T11:42:20;8.18;;;2.50;;
48550;SDS011;34397;51.176;6.738;2023-03-20T11:44:58;5.32;;;1.50;;
48550;SDS011;34397;51.176;6.738;2023-03-20T11:47:32;5.45;;;1.77;;
48550;SDS011;34397;51.176;6.738;2023-03-20T11:50:12;7.18;;;2.03;;
48550;SDS011;34397;51.176;6.738;2023-03-20T11:52:58;5.72;;;1.80;;
48550;SDS011;34397;51.176;6.738;2023-03-20T11:55:33;6.63;;;1.73;;
48550;SDS011;34397;51.176;6.738;2023-03-20T11:58:05;3.28;;;1.48;;
48550;SDS011;34397;51.176;6.738;2023-03-20T12:00:46;3.50;;;1.50;;
48550;SDS011;34397;51.176;6.738;2023-03-20T12:03:35;21.48;;;2.05;;
48550;SDS011;34397;51.176;6.738;2023-03-20T12:06:15;5.30;;;1.40;;
48550;SDS011;34397;51.176;6.738;2023-03-20T12:08:50;6.40;;;1.75;;
48550;SDS011;34397;51.176;6.738;2023-03-20T12:11:35;5.80;;;1.85;;
48550;SDS011;34397;51.176;6.738;2023-03-20T12:14:16;5.65;;;1.65;;
48550;SDS011;34397;51.176;6.738;2023-03-20T12:16:55;7.65;;;1.80;;
48550;SDS011;34397;51.176;6.738;2023-03-20T12:19:43;6.25;;;1.75;;
48550;SDS011;34397;51.176;6.738;2023-03-20T12:22:19;9.88;;;2.28;;
48550;SDS011;34397;51.176;6.738;2023-03-20T12:24:55;4.47;;;1.83;;
48550;SDS011;34397;51.176;6.738;2023-03-20T12:27:36;6.18;;;1.80;;
48550;SDS011;34397;51.176;6.738;2023-03-20T12:30:15;8.00;;;2.10;;
48550;SDS011;34397;51.176;6.738;2023-03-20T12:32:54;5.15;;;2.13;;
48550;SDS011;34397;51.176;6.738;2023-03-20T12:35:33;5.68;;;1.77;;
48550;SDS011;34397;51.176;6.738;2023-03-20T12:38:10;6.88;;;1.80;;
48550;SDS011;34397;51.176;6.738;2023-03-20T12:40:55;7.00;;;1.70;;
48550;SDS011;34397;51.176;6.738;2023-03-20T12:43:35;3.90;;;1.70;;
48550;SDS011;34397;51.176;6.738;2023-03-20T12:46:45;5.72;;;1.55;;
48550;SDS011;34397;51.176;6.738;2023-03-20T12:49:28;7.53;;;1.58;;
48550;SDS011;34397;51.176;6.738;2023-03-20T12:52:13;5.00;;;1.60;;
48550;SDS011;34397;51.176;6.738;2023-03-20T12:55:00;6.63;;;1.52;;
48550;SDS011;34397;51.176;6.738;2023-03-20T12:57:50;7.45;;;2.28;;
48550;SDS011;34397;51.176;6.738;2023-03-20T13:00:34;6.68;;;1.60;;
48550;SDS011;34397;51.176;6.738;2023-03-20T13:03:17;6.47;;;2.10;;
48550;SDS011;34397;51.176;6.738;2023-03-20T13:06:08;3.90;;;1.70;;
48550;SDS011;34397;51.176;6.738;2023-03-20T13:11:57;7.22;;;2.05;;
48550;SDS011;34397;51.176;6.738;2023-03-20T13:14:39;5.20;;;2.35;;
48550;SDS011;34397;51.176;6.738;2023-03-20T13:17:22;5.35;;;1.92;;
48550;SDS011;34397;51.176;6.738;2023-03-20T13:20:06;4.10;;;2.10;;
48550;SDS011;34397;51.176;6.738;2023-03-20T13:22:53;5.20;;;2.03;;
48550;SDS011;34397;51.176;6.738;2023-03-20T13:25:42;5.13;;;1.95;;
48550;SDS011;34397;51.176;6.738;2023-03-20T13:28:27;5.35;;;2.17;;
48550;SDS011;34397;51.176;6.738;2023-03-20T13:31:12;9.85;;;2.00;;
48550;SDS011;34397;51.176;6.738;2023-03-20T13:34:09;6.45;;;1.90;;
48550;SDS011;34397;51.176;6.738;2023-03-20T13:36:55;5.63;;;1.60;;
48550;SDS011;34397;51.176;6.738;2023-03-20T13:39:41;5.22;;;1.48;;
48550;SDS011;34397;51.176;6.738;2023-03-20T13:42:18;5.80;;;1.77;;
48550;SDS011;34397;51.176;6.738;2023-03-20T13:45:00;5.63;;;1.60;;
48550;SDS011;34397;51.176;6.738;2023-03-20T13:47:37;10.80;;;1.90;;
48550;SDS011;34397;51.176;6.738;2023-03-20T13:50:17;7.15;;;1.85;;
48550;SDS011;34397;51.176;6.738;2023-03-20T13:53:05;6.07;;;1.52;;
48550;SDS011;34397;51.176;6.738;2023-03-20T13:55:47;6.05;;;1.60;;
48550;SDS011;34397;51.176;6.738;2023-03-20T14:01:24;7.45;;;1.80;;
48550;SDS011;34397;51.176;6.738;2023-03-20T14:04:08;7.68;;;1.73;;
48550;SDS011;34397;51.176;6.738;2023-03-20T14:06:49;7.32;;;2.25;;
48550;SDS011;34397;51.176;6.738;2023-03-20T14:09:26;10.77;;;2.40;;
48550;SDS011;34397;51.176;6.738;2023-03-20T14:12:03;7.28;;;1.70;;
48550;SDS011;34397;51.176;6.738;2023-03-20T14:14:41;9.18;;;2.05;;
48550;SDS011;34397;51.176;6.738;2023-03-20T14:17:17;7.25;;;2.15;;
48550;SDS011;34397;51.176;6.738;2023-03-20T14:19:52;9.80;;;2.30;;
48550;SDS011;34397;51.176;6.738;2023-03-20T14:22:27;7.47;;;2.40;;
48550;SDS011;34397;51.176;6.738;2023-03-20T14:25:06;8.65;;;1.83;;
48550;SDS011;34397;51.176;6.738;2023-03-20T14:27:52;7.45;;;2.35;;
48550;SDS011;34397;51.176;6.738;2023-03-20T14:30:37;13.52;;;3.13;;
48550;SDS011;34397;51.176;6.738;2023-03-20T14:33:23;9.18;;;2.30;;
48550;SDS011;34397;51.176;6.738;2023-03-20T14:39:05;9.35;;;2.40;;
48550;SDS011;34397;51.176;6.738;2023-03-20T14:41:55;7.65;;;2.10;;
48550;SDS011;34397;51.176;6.738;2023-03-20T14:44:38;8.63;;;2.03;;
48550;SDS011;34397;51.176;6.738;2023-03-20T14:47:25;10.85;;;2.10;;
48550;SDS011;34397;51.176;6.738;2023-03-20T14:50:08;7.90;;;2.10;;
48550;SDS011;34397;51.176;6.738;2023-03-20T14:52:53;16.05;;;2.40;;
48550;SDS011;34397;51.176;6.738;2023-03-20T14:55:45;7.47;;;1.77;;
48550;SDS011;34397;51.176;6.738;2023-03-20T14:58:34;7.13;;;1.83;;
48550;SDS011;34397;51.176;6.738;2023-03-20T15:04:22;11.48;;;2.28;;
48550;SDS011;34397;51.176;6.738;2023-03-20T15:07:03;4.97;;;1.70;;
48550;SDS011;34397;51.176;6.738;2023-03-20T15:09:42;7.40;;;1.80;;
48550;SDS011;34397;51.176;6.738;2023-03-20T15:12:18;6.53;;;1.80;;
48550;SDS011;34397;51.176;6.738;2023-03-20T15:14:54;9.35;;;2.25;;
48550;SDS011;34397;51.176;6.738;2023-03-20T15:17:33;8.15;;;2.28;;
48550;SDS011;34397;51.176;6.738;2023-03-20T15:20:11;5.30;;;2.22;;
48550;SDS011;34397;51.176;6.738;2023-03-20T15:22:47;6.10;;;1.80;;
48550;SDS011;34397;51.176;6.738;2023-03-20T15:25:21;8.05;;;2.00;;
48550;SDS011;34397;51.176;6.738;2023-03-20T15:27:56;14.30;;;1.98;;
48550;SDS011;34397;51.176;6.738;2023-03-20T15:30:28;9.73;;;2.13;;
48550;SDS011;34397;51.176;6.738;2023-03-20T15:33:03;6.78;;;1.63;;
48550;SDS011;34397;51.176;6.738;2023-03-20T15:35:35;10.55;;;2.38;;
48550;SDS011;34397;51.176;6.738;2023-03-20T15:38:07;7.10;;;1.70;;
48550;SDS011;34397;51.176;6.738;2023-03-20T15:40:45;5.03;;;1.30;;
48550;SDS011;34397;51.176;6.738;2023-03-20T15:43:20;6.50;;;1.40;;
48550;SDS011;34397;51.176;6.738;2023-03-20T15:45:53;8.10;;;1.60;;
48550;SDS011;34397;51.176;6.738;2023-03-20T15:48:28;6.32;;;1.73;;
48550;SDS011;34397;51.176;6.738;2023-03-20T15:51:01;8.68;;;1.80;;
48550;SDS011;34397;51.176;6.738;2023-03-20T15:53:35;12.45;;;1.83;;
48550;SDS011;34397;51.176;6.738;2023-03-20T15:56:10;4.72;;;1.63;;
48550;SDS011;34397;51.176;6.738;2023-03-20T15:58:46;10.02;;;2.35;;
48550;SDS011;34397;51.176;6.738;2023-03-20T16:01:22;8.15;;;1.88;;
48550;SDS011;34397;51.176;6.738;2023-03-20T16:03:56;5.70;;;2.05;;
48550;SDS011;34397;51.176;6.738;2023-03-20T16:06:30;10.50;;;2.08;;